sensor_id;sensor_type;location;lat;lon;timestamp;P1;durP1;ratioP1;P2;durP2;ratioP2
72379;SDS011;60354;47.798;12.472;2024-01-07T00:01:54;5.75;;;3.03;;
72379;SDS011;60354;47.798;12.472;2024-01-07T00:04:20;8.30;;;3.80;;
72379;SDS011;60354;47.798;12.472;2024-01-07T00:06:46;9.98;;;4.28;;
72379;SDS011;60354;47.798;12.472;2024-01-07T00:09:12;9.65;;;4.03;;
72379;SDS011;60354;47.798;12.472;2024-01-07T00:11:38;6.55;;;3.55;;
72379;SDS011;60354;47.798;12.472;2024-01-07T00:14:04;8.13;;;3.70;;
72379;SDS011;60354;47.798;12.472;2024-01-07T00:16:29;12.57;;;4.80;;
72379;SDS011;60354;47.798;12.472;2024-01-07T00:18:55;11.77;;;4.47;;
72379;SDS011;60354;47.798;12.472;2024-01-07T00:21:20;11.88;;;4.65;;
72379;SDS011;60354;47.798;12.472;2024-01-07T00:23:46;13.75;;;5.80;;
72379;SDS011;60354;47.798;12.472;2024-01-07T00:26:11;9.45;;;5.15;;
72379;SDS011;60354;47.798;12.472;2024-01-07T00:28:37;7.57;;;4.80;;
72379;SDS011;60354;47.798;12.472;2024-01-07T00:31:02;10.05;;;4.88;;
72379;SDS011;60354;47.798;12.472;2024-01-07T00:33:30;9.40;;;4.88;;
72379;SDS011;60354;47.798;12.472;2024-01-07T00:35:56;9.95;;;4.43;;
72379;SDS011;60354;47.798;12.472;2024-01-07T00:38:22;8.38;;;4.53;;
72379;SDS011;60354;47.798;12.472;2024-01-07T00:40:47;8.10;;;4.35;;
72379;SDS011;60354;47.798;12.472;2024-01-07T00:43:13;8.48;;;5.25;;
72379;SDS011;60354;47.798;12.472;2024-01-07T00:45:39;6.32;;;3.90;;
72379;SDS011;60354;47.798;12.472;2024-01-07T00:48:04;4.82;;;2.90;;
72379;SDS011;60354;47.798;12.472;2024-01-07T00:50:30;3.95;;;2.75;;
72379;SDS011;60354;47.798;12.472;2024-01-07T00:52:56;4.60;;;2.85;;
72379;SDS011;60354;47.798;12.472;2024-01-07T00:55:21;3.75;;;2.45;;
72379;SDS011;60354;47.798;12.472;2024-01-07T00:57:49;7.30;;;4.00;;
72379;SDS011;60354;47.798;12.472;2024-01-07T01:00:14;4.88;;;2.78;;
72379;SDS011;60354;47.798;12.472;2024-01-07T01:02:41;5.55;;;2.70;;
72379;SDS011;60354;47.798;12.472;2024-01-07T01:05:06;6.20;;;2.95;;
72379;SDS011;60354;47.798;12.472;2024-01-07T01:07:32;6.90;;;2.92;;
72379;SDS011;60354;47.798;12.472;2024-01-07T01:09:58;9.38;;;4.07;;
72379;SDS011;60354;47.798;12.472;2024-01-07T01:12:23;7.82;;;3.80;;
72379;SDS011;60354;47.798;12.472;2024-01-07T01:14:49;8.48;;;4.63;;
72379;SDS011;60354;47.798;12.472;2024-01-07T01:17:15;11.23;;;4.30;;
72379;SDS011;60354;47.798;12.472;2024-01-07T01:19:40;10.70;;;3.97;;
72379;SDS011;60354;47.798;12.472;2024-01-07T01:22:06;3.95;;;2.33;;
72379;SDS011;60354;47.798;12.472;2024-01-07T01:24:31;4.28;;;2.20;;
72379;SDS011;60354;47.798;12.472;2024-01-07T01:26:57;5.15;;;2.58;;
72379;SDS011;60354;47.798;12.472;2024-01-07T01:29:22;4.68;;;2.50;;
72379;SDS011;60354;47.798;12.472;2024-01-07T01:31:48;5.22;;;2.55;;
72379;SDS011;60354;47.798;12.472;2024-01-07T01:34:13;4.45;;;2.65;;
72379;SDS011;60354;47.798;12.472;2024-01-07T01:36:38;3.72;;;2.17;;
72379;SDS011;60354;47.798;12.472;2024-01-07T01:39:04;4.53;;;2.45;;
72379;SDS011;60354;47.798;12.472;2024-01-07T01:41:30;4.53;;;2.55;;
72379;SDS011;60354;47.798;12.472;2024-01-07T01:43:57;7.30;;;2.72;;
72379;SDS011;60354;47.798;12.472;2024-01-07T01:46:23;6.85;;;3.05;;
72379;SDS011;60354;47.798;12.472;2024-01-07T01:48:49;6.85;;;2.92;;
72379;SDS011;60354;47.798;12.472;2024-01-07T01:51:16;3.30;;;1.92;;
72379;SDS011;60354;47.798;12.472;2024-01-07T01:53:42;5.07;;;2.30;;
72379;SDS011;60354;47.798;12.472;2024-01-07T01:56:08;3.58;;;2.00;;
72379;SDS011;60354;47.798;12.472;2024-01-07T01:58:33;2.67;;;1.55;;
72379;SDS011;60354;47.798;12.472;2024-01-07T02:00:59;1.75;;;1.00;;
72379;SDS011;60354;47.798;12.472;2024-01-07T02:03:25;2.10;;;1.20;;
72379;SDS011;60354;47.798;12.472;2024-01-07T02:05:51;1.50;;;1.00;;
72379;SDS011;60354;47.798;12.472;2024-01-07T02:08:18;2.30;;;1.38;;
72379;SDS011;60354;47.798;12.472;2024-01-07T02:10:44;1.90;;;1.35;;
72379;SDS011;60354;47.798;12.472;2024-01-07T02:13:10;1.60;;;1.00;;
72379;SDS011;60354;47.798;12.472;2024-01-07T02:15:35;2.40;;;1.10;;
72379;SDS011;60354;47.798;12.472;2024-01-07T02:18:01;0.95;;;0.82;;
72379;SDS011;60354;47.798;12.472;2024-01-07T02:20:27;1.33;;;0.80;;
72379;SDS011;60354;47.798;12.472;2024-01-07T02:22:52;0.60;;;0.60;;
72379;SDS011;60354;47.798;12.472;2024-01-07T02:25:18;1.10;;;0.70;;
72379;SDS011;60354;47.798;12.472;2024-01-07T02:27:44;0.93;;;0.70;;
72379;SDS011;60354;47.798;12.472;2024-01-07T02:30:09;0.95;;;0.70;;
72379;SDS011;60354;47.798;12.472;2024-01-07T02:32:35;0.63;;;0.50;;
72379;SDS011;60354;47.798;12.472;2024-01-07T02:35:03;0.47;;;0.47;;
72379;SDS011;60354;47.798;12.472;2024-01-07T02:37:29;0.40;;;0.40;;
72379;SDS011;60354;47.798;12.472;2024-01-07T02:39:54;0.60;;;0.60;;
72379;SDS011;60354;47.798;12.472;2024-01-07T02:42:20;0.50;;;0.50;;
72379;SDS011;60354;47.798;12.472;2024-01-07T02:44:45;0.60;;;0.60;;
72379;SDS011;60354;47.798;12.472;2024-01-07T02:47:11;0.57;;;0.57;;
72379;SDS011;60354;47.798;12.472;2024-01-07T02:49:36;0.57;;;0.57;;
72379;SDS011;60354;47.798;12.472;2024-01-07T02:52:02;0.60;;;0.60;;
72379;SDS011;60354;47.798;12.472;2024-01-07T02:54:27;2.05;;;0.60;;
72379;SDS011;60354;47.798;12.472;2024-01-07T02:56:53;0.40;;;0.40;;
72379;SDS011;60354;47.798;12.472;2024-01-07T02:59:18;0.60;;;0.60;;
72379;SDS011;60354;47.798;12.472;2024-01-07T03:01:43;0.50;;;0.50;;
72379;SDS011;60354;47.798;12.472;2024-01-07T03:04:12;0.80;;;0.50;;
72379;SDS011;60354;47.798;12.472;2024-01-07T03:06:40;0.63;;;0.60;;
72379;SDS011;60354;47.798;12.472;2024-01-07T03:09:06;0.60;;;0.60;;
72379;SDS011;60354;47.798;12.472;2024-01-07T03:11:32;0.52;;;0.52;;
72379;SDS011;60354;47.798;12.472;2024-01-07T03:13:57;0.55;;;0.55;;
72379;SDS011;60354;47.798;12.472;2024-01-07T03:16:23;1.65;;;0.82;;
72379;SDS011;60354;47.798;12.472;2024-01-07T03:18:50;1.63;;;0.95;;
72379;SDS011;60354;47.798;12.472;2024-01-07T03:21:20;1.45;;;1.10;;
72379;SDS011;60354;47.798;12.472;2024-01-07T03:23:48;1.50;;;1.15;;
72379;SDS011;60354;47.798;12.472;2024-01-07T03:26:14;1.05;;;0.95;;
72379;SDS011;60354;47.798;12.472;2024-01-07T03:28:41;1.40;;;1.10;;
72379;SDS011;60354;47.798;12.472;2024-01-07T03:31:07;1.13;;;0.95;;
72379;SDS011;60354;47.798;12.472;2024-01-07T03:33:36;2.15;;;1.15;;
72379;SDS011;60354;47.798;12.472;2024-01-07T03:36:06;1.38;;;1.00;;
72379;SDS011;60354;47.798;12.472;2024-01-07T03:38:33;1.30;;;1.05;;
72379;SDS011;60354;47.798;12.472;2024-01-07T03:40:58;1.48;;;1.00;;
72379;SDS011;60354;47.798;12.472;2024-01-07T03:43:24;2.00;;;1.20;;
72379;SDS011;60354;47.798;12.472;2024-01-07T03:45:49;1.40;;;1.10;;
72379;SDS011;60354;47.798;12.472;2024-01-07T03:48:15;1.48;;;1.10;;
72379;SDS011;60354;47.798;12.472;2024-01-07T03:50:40;1.35;;;0.95;;
72379;SDS011;60354;47.798;12.472;2024-01-07T03:53:06;2.08;;;1.20;;
72379;SDS011;60354;47.798;12.472;2024-01-07T03:55:31;0.90;;;0.90;;
72379;SDS011;60354;47.798;12.472;2024-01-07T03:57:56;1.30;;;1.15;;
72379;SDS011;60354;47.798;12.472;2024-01-07T04:00:22;1.70;;;1.27;;
72379;SDS011;60354;47.798;12.472;2024-01-07T04:02:47;1.45;;;1.13;;
72379;SDS011;60354;47.798;12.472;2024-01-07T04:05:13;1.50;;;1.13;;
72379;SDS011;60354;47.798;12.472;2024-01-07T04:07:40;1.50;;;1.20;;
72379;SDS011;60354;47.798;12.472;2024-01-07T04:10:05;1.13;;;0.90;;
72379;SDS011;60354;47.798;12.472;2024-01-07T04:12:32;1.00;;;0.80;;
72379;SDS011;60354;47.798;12.472;2024-01-07T04:14:58;1.30;;;1.00;;
72379;SDS011;60354;47.798;12.472;2024-01-07T04:17:23;1.15;;;0.90;;
72379;SDS011;60354;47.798;12.472;2024-01-07T04:19:49;1.80;;;0.93;;
72379;SDS011;60354;47.798;12.472;2024-01-07T04:22:14;0.82;;;0.70;;
72379;SDS011;60354;47.798;12.472;2024-01-07T04:24:40;0.70;;;0.70;;
72379;SDS011;60354;47.798;12.472;2024-01-07T04:27:07;0.60;;;0.60;;
72379;SDS011;60354;47.798;12.472;2024-01-07T04:29:32;0.50;;;0.50;;
72379;SDS011;60354;47.798;12.472;2024-01-07T04:31:58;0.63;;;0.52;;
72379;SDS011;60354;47.798;12.472;2024-01-07T04:34:23;0.57;;;0.52;;
72379;SDS011;60354;47.798;12.472;2024-01-07T04:36:49;0.70;;;0.60;;
72379;SDS011;60354;47.798;12.472;2024-01-07T04:39:15;0.43;;;0.43;;
72379;SDS011;60354;47.798;12.472;2024-01-07T04:41:41;0.60;;;0.60;;
72379;SDS011;60354;47.798;12.472;2024-01-07T04:44:06;1.15;;;1.00;;
72379;SDS011;60354;47.798;12.472;2024-01-07T04:46:38;0.95;;;0.80;;
72379;SDS011;60354;47.798;12.472;2024-01-07T04:49:04;0.70;;;0.70;;
72379;SDS011;60354;47.798;12.472;2024-01-07T04:51:31;0.60;;;0.60;;
72379;SDS011;60354;47.798;12.472;2024-01-07T04:53:56;0.50;;;0.50;;
72379;SDS011;60354;47.798;12.472;2024-01-07T04:56:22;0.63;;;0.60;;
72379;SDS011;60354;47.798;12.472;2024-01-07T04:58:48;0.82;;;0.60;;
72379;SDS011;60354;47.798;12.472;2024-01-07T05:01:13;0.65;;;0.65;;
72379;SDS011;60354;47.798;12.472;2024-01-07T05:03:39;0.90;;;0.77;;
72379;SDS011;60354;47.798;12.472;2024-01-07T05:06:04;1.17;;;1.00;;
72379;SDS011;60354;47.798;12.472;2024-01-07T05:08:30;1.60;;;1.05;;
72379;SDS011;60354;47.798;12.472;2024-01-07T05:10:55;1.25;;;0.90;;
72379;SDS011;60354;47.798;12.472;2024-01-07T05:13:21;1.90;;;0.70;;
72379;SDS011;60354;47.798;12.472;2024-01-07T05:15:47;0.88;;;0.80;;
72379;SDS011;60354;47.798;12.472;2024-01-07T05:18:20;0.80;;;0.80;;
72379;SDS011;60354;47.798;12.472;2024-01-07T05:20:49;1.23;;;0.70;;
72379;SDS011;60354;47.798;12.472;2024-01-07T05:23:15;0.70;;;0.70;;
72379;SDS011;60354;47.798;12.472;2024-01-07T05:25:42;0.63;;;0.63;;
72379;SDS011;60354;47.798;12.472;2024-01-07T05:28:08;0.60;;;0.60;;
72379;SDS011;60354;47.798;12.472;2024-01-07T05:30:34;0.70;;;0.70;;
72379;SDS011;60354;47.798;12.472;2024-01-07T05:32:59;1.42;;;0.70;;
72379;SDS011;60354;47.798;12.472;2024-01-07T05:35:25;0.93;;;0.90;;
72379;SDS011;60354;47.798;12.472;2024-01-07T05:37:50;0.75;;;0.60;;
72379;SDS011;60354;47.798;12.472;2024-01-07T05:40:15;0.70;;;0.70;;
72379;SDS011;60354;47.798;12.472;2024-01-07T05:42:41;0.80;;;0.80;;
72379;SDS011;60354;47.798;12.472;2024-01-07T05:45:06;0.90;;;0.77;;
72379;SDS011;60354;47.798;12.472;2024-01-07T05:47:32;0.88;;;0.80;;
72379;SDS011;60354;47.798;12.472;2024-01-07T05:49:58;1.17;;;0.70;;
72379;SDS011;60354;47.798;12.472;2024-01-07T05:52:23;0.93;;;0.70;;
72379;SDS011;60354;47.798;12.472;2024-01-07T05:54:49;1.10;;;0.80;;
72379;SDS011;60354;47.798;12.472;2024-01-07T05:57:14;1.00;;;0.90;;
72379;SDS011;60354;47.798;12.472;2024-01-07T05:59:40;1.00;;;0.90;;
72379;SDS011;60354;47.798;12.472;2024-01-07T06:02:05;1.48;;;0.82;;
72379;SDS011;60354;47.798;12.472;2024-01-07T06:04:31;1.00;;;0.90;;
72379;SDS011;60354;47.798;12.472;2024-01-07T06:06:56;1.15;;;0.93;;
72379;SDS011;60354;47.798;12.472;2024-01-07T06:09:22;1.17;;;1.02;;
72379;SDS011;60354;47.798;12.472;2024-01-07T06:11:47;1.25;;;1.00;;
72379;SDS011;60354;47.798;12.472;2024-01-07T06:14:13;1.50;;;1.00;;
72379;SDS011;60354;47.798;12.472;2024-01-07T06:16:39;1.17;;;1.00;;
72379;SDS011;60354;47.798;12.472;2024-01-07T06:19:04;1.17;;;1.02;;
72379;SDS011;60354;47.798;12.472;2024-01-07T06:21:29;1.00;;;0.90;;
72379;SDS011;60354;47.798;12.472;2024-01-07T06:23:55;1.40;;;1.10;;
72379;SDS011;60354;47.798;12.472;2024-01-07T06:26:20;1.05;;;0.95;;
72379;SDS011;60354;47.798;12.472;2024-01-07T06:28:46;1.55;;;1.27;;
72379;SDS011;60354;47.798;12.472;2024-01-07T06:31:11;1.30;;;1.02;;
72379;SDS011;60354;47.798;12.472;2024-01-07T06:33:37;1.10;;;1.00;;
72379;SDS011;60354;47.798;12.472;2024-01-07T06:36:02;1.15;;;1.00;;
72379;SDS011;60354;47.798;12.472;2024-01-07T06:38:29;1.15;;;0.90;;
72379;SDS011;60354;47.798;12.472;2024-01-07T06:40:54;1.10;;;1.00;;
72379;SDS011;60354;47.798;12.472;2024-01-07T06:43:20;1.15;;;1.00;;
72379;SDS011;60354;47.798;12.472;2024-01-07T06:45:46;0.98;;;0.88;;
72379;SDS011;60354;47.798;12.472;2024-01-07T06:48:12;1.42;;;1.10;;
72379;SDS011;60354;47.798;12.472;2024-01-07T06:50:37;1.75;;;0.98;;
72379;SDS011;60354;47.798;12.472;2024-01-07T06:53:03;1.10;;;1.00;;
72379;SDS011;60354;47.798;12.472;2024-01-07T06:55:28;1.20;;;1.00;;
72379;SDS011;60354;47.798;12.472;2024-01-07T06:57:54;1.58;;;1.00;;
72379;SDS011;60354;47.798;12.472;2024-01-07T07:00:19;1.13;;;1.00;;
72379;SDS011;60354;47.798;12.472;2024-01-07T07:02:45;1.10;;;1.00;;
72379;SDS011;60354;47.798;12.472;2024-01-07T07:05:10;1.70;;;1.17;;
72379;SDS011;60354;47.798;12.472;2024-01-07T07:07:36;1.75;;;1.20;;
72379;SDS011;60354;47.798;12.472;2024-01-07T07:10:02;1.60;;;1.00;;
72379;SDS011;60354;47.798;12.472;2024-01-07T07:12:27;1.30;;;1.10;;
72379;SDS011;60354;47.798;12.472;2024-01-07T07:14:53;1.25;;;0.98;;
72379;SDS011;60354;47.798;12.472;2024-01-07T07:17:18;2.33;;;1.40;;
72379;SDS011;60354;47.798;12.472;2024-01-07T07:19:43;1.70;;;1.30;;
72379;SDS011;60354;47.798;12.472;2024-01-07T07:22:09;1.50;;;1.33;;
72379;SDS011;60354;47.798;12.472;2024-01-07T07:24:34;2.53;;;1.30;;
72379;SDS011;60354;47.798;12.472;2024-01-07T07:27:00;1.25;;;1.10;;
72379;SDS011;60354;47.798;12.472;2024-01-07T07:29:25;2.58;;;1.40;;
72379;SDS011;60354;47.798;12.472;2024-01-07T07:31:51;1.75;;;1.35;;
72379;SDS011;60354;47.798;12.472;2024-01-07T07:34:16;1.67;;;1.30;;
72379;SDS011;60354;47.798;12.472;2024-01-07T07:36:42;2.15;;;1.50;;
72379;SDS011;60354;47.798;12.472;2024-01-07T07:39:10;3.40;;;2.03;;
72379;SDS011;60354;47.798;12.472;2024-01-07T07:41:35;2.88;;;2.00;;
72379;SDS011;60354;47.798;12.472;2024-01-07T07:44:01;3.05;;;2.03;;
72379;SDS011;60354;47.798;12.472;2024-01-07T07:46:26;2.50;;;1.63;;
72379;SDS011;60354;47.798;12.472;2024-01-07T07:48:52;1.92;;;1.30;;
72379;SDS011;60354;47.798;12.472;2024-01-07T07:51:17;2.13;;;1.50;;
72379;SDS011;60354;47.798;12.472;2024-01-07T07:53:43;1.92;;;1.50;;
72379;SDS011;60354;47.798;12.472;2024-01-07T07:56:08;1.80;;;1.33;;
72379;SDS011;60354;47.798;12.472;2024-01-07T07:58:34;2.42;;;1.60;;
72379;SDS011;60354;47.798;12.472;2024-01-07T08:00:59;2.22;;;1.48;;
72379;SDS011;60354;47.798;12.472;2024-01-07T08:03:25;1.52;;;1.20;;
72379;SDS011;60354;47.798;12.472;2024-01-07T08:05:50;1.80;;;1.42;;
72379;SDS011;60354;47.798;12.472;2024-01-07T08:08:16;2.05;;;1.40;;
72379;SDS011;60354;47.798;12.472;2024-01-07T08:10:44;1.40;;;1.20;;
72379;SDS011;60354;47.798;12.472;2024-01-07T08:13:09;1.80;;;1.50;;
72379;SDS011;60354;47.798;12.472;2024-01-07T08:15:35;2.17;;;1.67;;
72379;SDS011;60354;47.798;12.472;2024-01-07T08:18:01;2.80;;;1.38;;
72379;SDS011;60354;47.798;12.472;2024-01-07T08:20:27;2.05;;;1.52;;
72379;SDS011;60354;47.798;12.472;2024-01-07T08:22:53;1.73;;;1.20;;
72379;SDS011;60354;47.798;12.472;2024-01-07T08:25:18;1.63;;;1.30;;
72379;SDS011;60354;47.798;12.472;2024-01-07T08:27:43;2.35;;;1.30;;
72379;SDS011;60354;47.798;12.472;2024-01-07T08:30:10;2.22;;;1.40;;
72379;SDS011;60354;47.798;12.472;2024-01-07T08:32:38;1.60;;;1.33;;
72379;SDS011;60354;47.798;12.472;2024-01-07T08:35:04;1.95;;;1.50;;
72379;SDS011;60354;47.798;12.472;2024-01-07T08:37:30;1.83;;;1.52;;
72379;SDS011;60354;47.798;12.472;2024-01-07T08:39:56;1.95;;;1.42;;
72379;SDS011;60354;47.798;12.472;2024-01-07T08:42:21;2.72;;;1.60;;
72379;SDS011;60354;47.798;12.472;2024-01-07T08:44:47;1.83;;;1.42;;
72379;SDS011;60354;47.798;12.472;2024-01-07T08:47:12;2.53;;;1.40;;
72379;SDS011;60354;47.798;12.472;2024-01-07T08:49:38;1.85;;;1.42;;
72379;SDS011;60354;47.798;12.472;2024-01-07T08:52:04;1.77;;;1.10;;
72379;SDS011;60354;47.798;12.472;2024-01-07T08:54:30;2.08;;;1.40;;
72379;SDS011;60354;47.798;12.472;2024-01-07T08:56:55;3.28;;;1.30;;
72379;SDS011;60354;47.798;12.472;2024-01-07T08:59:21;2.42;;;1.40;;
72379;SDS011;60354;47.798;12.472;2024-01-07T09:01:46;1.92;;;1.50;;
72379;SDS011;60354;47.798;12.472;2024-01-07T09:04:12;2.42;;;1.45;;
72379;SDS011;60354;47.798;12.472;2024-01-07T09:06:38;1.80;;;1.50;;
72379;SDS011;60354;47.798;12.472;2024-01-07T09:09:03;2.25;;;1.50;;
72379;SDS011;60354;47.798;12.472;2024-01-07T09:11:31;2.63;;;1.60;;
72379;SDS011;60354;47.798;12.472;2024-01-07T09:13:57;2.53;;;1.70;;
72379;SDS011;60354;47.798;12.472;2024-01-07T09:16:22;3.38;;;1.65;;
72379;SDS011;60354;47.798;12.472;2024-01-07T09:18:48;2.33;;;1.48;;
72379;SDS011;60354;47.798;12.472;2024-01-07T09:21:13;2.10;;;1.60;;
72379;SDS011;60354;47.798;12.472;2024-01-07T09:23:40;3.28;;;1.70;;
72379;SDS011;60354;47.798;12.472;2024-01-07T09:26:07;2.17;;;1.60;;
72379;SDS011;60354;47.798;12.472;2024-01-07T09:28:32;2.30;;;1.70;;
72379;SDS011;60354;47.798;12.472;2024-01-07T09:30:58;2.53;;;1.70;;
72379;SDS011;60354;47.798;12.472;2024-01-07T09:33:23;2.92;;;1.70;;
72379;SDS011;60354;47.798;12.472;2024-01-07T09:35:52;2.67;;;1.88;;
72379;SDS011;60354;47.798;12.472;2024-01-07T09:38:19;5.90;;;3.03;;
72379;SDS011;60354;47.798;12.472;2024-01-07T09:40:44;3.72;;;1.98;;
72379;SDS011;60354;47.798;12.472;2024-01-07T09:43:10;3.47;;;2.05;;
72379;SDS011;60354;47.798;12.472;2024-01-07T09:45:36;10.65;;;8.10;;
72379;SDS011;60354;47.798;12.472;2024-01-07T09:48:04;6.18;;;5.10;;
72379;SDS011;60354;47.798;12.472;2024-01-07T09:50:30;5.05;;;3.85;;
72379;SDS011;60354;47.798;12.472;2024-01-07T09:52:56;6.55;;;4.07;;
72379;SDS011;60354;47.798;12.472;2024-01-07T09:55:27;8.75;;;6.22;;
72379;SDS011;60354;47.798;12.472;2024-01-07T09:58:00;5.57;;;3.75;;
72379;SDS011;60354;47.798;12.472;2024-01-07T10:00:26;4.10;;;3.00;;
72379;SDS011;60354;47.798;12.472;2024-01-07T10:02:52;4.85;;;3.15;;
72379;SDS011;60354;47.798;12.472;2024-01-07T10:05:19;5.60;;;3.10;;
72379;SDS011;60354;47.798;12.472;2024-01-07T10:07:44;4.05;;;2.80;;
72379;SDS011;60354;47.798;12.472;2024-01-07T10:10:16;3.55;;;2.40;;
72379;SDS011;60354;47.798;12.472;2024-01-07T10:12:45;2.58;;;1.98;;
72379;SDS011;60354;47.798;12.472;2024-01-07T10:15:12;2.42;;;1.83;;
72379;SDS011;60354;47.798;12.472;2024-01-07T10:17:38;2.70;;;2.08;;
72379;SDS011;60354;47.798;12.472;2024-01-07T10:20:05;2.40;;;1.88;;
72379;SDS011;60354;47.798;12.472;2024-01-07T10:22:35;2.58;;;1.88;;
72379;SDS011;60354;47.798;12.472;2024-01-07T10:25:02;2.50;;;1.90;;
72379;SDS011;60354;47.798;12.472;2024-01-07T10:27:28;2.58;;;1.90;;
72379;SDS011;60354;47.798;12.472;2024-01-07T10:29:53;2.83;;;1.95;;
72379;SDS011;60354;47.798;12.472;2024-01-07T10:32:20;3.00;;;2.08;;
72379;SDS011;60354;47.798;12.472;2024-01-07T10:34:46;3.03;;;1.90;;
72379;SDS011;60354;47.798;12.472;2024-01-07T10:37:12;2.58;;;1.95;;
72379;SDS011;60354;47.798;12.472;2024-01-07T10:39:38;2.42;;;1.80;;
72379;SDS011;60354;47.798;12.472;2024-01-07T10:42:03;2.65;;;1.83;;
72379;SDS011;60354;47.798;12.472;2024-01-07T10:44:30;2.92;;;1.92;;
72379;SDS011;60354;47.798;12.472;2024-01-07T10:46:57;2.92;;;1.92;;
72379;SDS011;60354;47.798;12.472;2024-01-07T10:49:24;2.80;;;1.95;;
72379;SDS011;60354;47.798;12.472;2024-01-07T10:52:11;2.72;;;2.05;;
72379;SDS011;60354;47.798;12.472;2024-01-07T10:54:36;3.53;;;2.35;;
72379;SDS011;60354;47.798;12.472;2024-01-07T10:59:37;4.05;;;2.63;;
72379;SDS011;60354;47.798;12.472;2024-01-07T11:02:03;4.68;;;2.67;;
72379;SDS011;60354;47.798;12.472;2024-01-07T11:04:35;8.02;;;3.90;;
72379;SDS011;60354;47.798;12.472;2024-01-07T11:12:22;3.55;;;2.40;;
72379;SDS011;60354;47.798;12.472;2024-01-07T11:14:48;8.02;;;3.53;;
72379;SDS011;60354;47.798;12.472;2024-01-07T11:17:39;4.15;;;2.67;;
72379;SDS011;60354;47.798;12.472;2024-01-07T11:20:05;6.90;;;3.40;;
72379;SDS011;60354;47.798;12.472;2024-01-07T11:22:32;13.48;;;6.10;;
72379;SDS011;60354;47.798;12.472;2024-01-07T11:24:58;5.72;;;3.30;;
72379;SDS011;60354;47.798;12.472;2024-01-07T11:27:25;4.57;;;2.88;;
72379;SDS011;60354;47.798;12.472;2024-01-07T11:29:56;4.82;;;3.13;;
72379;SDS011;60354;47.798;12.472;2024-01-07T11:32:24;5.60;;;3.88;;
72379;SDS011;60354;47.798;12.472;2024-01-07T11:34:53;5.55;;;3.28;;
72379;SDS011;60354;47.798;12.472;2024-01-07T11:37:21;5.95;;;3.13;;
72379;SDS011;60354;47.798;12.472;2024-01-07T11:39:54;5.00;;;2.90;;
72379;SDS011;60354;47.798;12.472;2024-01-07T11:42:21;3.65;;;2.97;;
72379;SDS011;60354;47.798;12.472;2024-01-07T11:44:54;5.03;;;3.33;;
72379;SDS011;60354;47.798;12.472;2024-01-07T11:47:21;16.30;;;7.13;;
72379;SDS011;60354;47.798;12.472;2024-01-07T11:49:48;6.18;;;3.58;;
72379;SDS011;60354;47.798;12.472;2024-01-07T11:52:16;6.70;;;4.00;;
72379;SDS011;60354;47.798;12.472;2024-01-07T11:54:43;14.02;;;6.78;;
72379;SDS011;60354;47.798;12.472;2024-01-07T11:57:09;11.68;;;5.75;;
72379;SDS011;60354;47.798;12.472;2024-01-07T11:59:36;30.92;;;12.50;;
72379;SDS011;60354;47.798;12.472;2024-01-07T12:02:02;17.13;;;7.65;;
72379;SDS011;60354;47.798;12.472;2024-01-07T12:04:32;10.75;;;5.32;;
72379;SDS011;60354;47.798;12.472;2024-01-07T12:06:57;6.13;;;4.32;;
72379;SDS011;60354;47.798;12.472;2024-01-07T12:09:23;7.65;;;3.70;;
72379;SDS011;60354;47.798;12.472;2024-01-07T12:11:50;5.13;;;3.70;;
72379;SDS011;60354;47.798;12.472;2024-01-07T12:14:16;5.80;;;3.55;;
72379;SDS011;60354;47.798;12.472;2024-01-07T12:16:42;5.72;;;3.63;;
72379;SDS011;60354;47.798;12.472;2024-01-07T12:19:08;5.53;;;3.53;;
72379;SDS011;60354;47.798;12.472;2024-01-07T12:21:35;5.72;;;3.80;;
72379;SDS011;60354;47.798;12.472;2024-01-07T12:24:01;5.40;;;3.63;;
72379;SDS011;60354;47.798;12.472;2024-01-07T12:26:27;6.22;;;3.70;;
72379;SDS011;60354;47.798;12.472;2024-01-07T12:28:53;5.22;;;3.60;;
72379;SDS011;60354;47.798;12.472;2024-01-07T12:31:20;5.93;;;3.97;;
72379;SDS011;60354;47.798;12.472;2024-01-07T12:33:46;6.13;;;3.97;;
72379;SDS011;60354;47.798;12.472;2024-01-07T12:36:12;6.97;;;4.10;;
72379;SDS011;60354;47.798;12.472;2024-01-07T12:38:38;6.65;;;4.20;;
72379;SDS011;60354;47.798;12.472;2024-01-07T12:41:03;6.53;;;4.45;;
72379;SDS011;60354;47.798;12.472;2024-01-07T12:43:30;10.38;;;5.35;;
72379;SDS011;60354;47.798;12.472;2024-01-07T12:45:55;7.68;;;5.03;;
72379;SDS011;60354;47.798;12.472;2024-01-07T12:48:22;7.47;;;4.63;;
72379;SDS011;60354;47.798;12.472;2024-01-07T12:50:48;11.45;;;5.50;;
72379;SDS011;60354;47.798;12.472;2024-01-07T12:53:14;10.30;;;6.22;;
72379;SDS011;60354;47.798;12.472;2024-01-07T12:55:39;12.50;;;6.78;;
72379;SDS011;60354;47.798;12.472;2024-01-07T12:58:05;7.60;;;5.00;;
72379;SDS011;60354;47.798;12.472;2024-01-07T13:00:31;10.60;;;6.57;;
72379;SDS011;60354;47.798;12.472;2024-01-07T13:02:56;12.02;;;6.88;;
72379;SDS011;60354;47.798;12.472;2024-01-07T13:05:22;11.05;;;6.25;;
72379;SDS011;60354;47.798;12.472;2024-01-07T13:07:48;12.82;;;6.90;;
72379;SDS011;60354;47.798;12.472;2024-01-07T13:10:15;10.95;;;6.80;;
72379;SDS011;60354;47.798;12.472;2024-01-07T13:12:40;11.13;;;6.60;;
72379;SDS011;60354;47.798;12.472;2024-01-07T13:15:06;10.73;;;6.38;;
72379;SDS011;60354;47.798;12.472;2024-01-07T13:17:32;9.45;;;5.82;;
72379;SDS011;60354;47.798;12.472;2024-01-07T13:20:00;21.10;;;12.35;;
72379;SDS011;60354;47.798;12.472;2024-01-07T13:22:26;37.80;;;13.73;;
72379;SDS011;60354;47.798;12.472;2024-01-07T13:24:52;36.55;;;15.15;;
72379;SDS011;60354;47.798;12.472;2024-01-07T13:27:19;36.10;;;14.27;;
72379;SDS011;60354;47.798;12.472;2024-01-07T13:29:48;19.67;;;9.88;;
72379;SDS011;60354;47.798;12.472;2024-01-07T13:32:13;12.48;;;7.47;;
72379;SDS011;60354;47.798;12.472;2024-01-07T13:34:43;25.25;;;10.80;;
72379;SDS011;60354;47.798;12.472;2024-01-07T13:37:09;28.38;;;12.15;;
72379;SDS011;60354;47.798;12.472;2024-01-07T13:39:35;20.88;;;10.85;;
72379;SDS011;60354;47.798;12.472;2024-01-07T13:42:01;10.95;;;6.80;;
72379;SDS011;60354;47.798;12.472;2024-01-07T13:44:26;12.02;;;6.30;;
72379;SDS011;60354;47.798;12.472;2024-01-07T13:46:52;12.88;;;8.23;;
72379;SDS011;60354;47.798;12.472;2024-01-07T13:49:18;8.10;;;5.57;;
72379;SDS011;60354;47.798;12.472;2024-01-07T13:51:44;11.15;;;6.97;;
72379;SDS011;60354;47.798;12.472;2024-01-07T13:54:09;10.02;;;6.32;;
72379;SDS011;60354;47.798;12.472;2024-01-07T13:56:42;8.35;;;5.35;;
72379;SDS011;60354;47.798;12.472;2024-01-07T13:59:10;9.48;;;6.05;;
72379;SDS011;60354;47.798;12.472;2024-01-07T14:01:36;9.75;;;6.32;;
72379;SDS011;60354;47.798;12.472;2024-01-07T14:04:02;8.02;;;4.50;;
72379;SDS011;60354;47.798;12.472;2024-01-07T14:06:31;11.60;;;6.63;;
72379;SDS011;60354;47.798;12.472;2024-01-07T14:08:57;8.27;;;4.95;;
72379;SDS011;60354;47.798;12.472;2024-01-07T14:11:23;8.23;;;4.60;;
72379;SDS011;60354;47.798;12.472;2024-01-07T14:13:49;7.03;;;4.63;;
72379;SDS011;60354;47.798;12.472;2024-01-07T14:16:14;12.48;;;7.68;;
72379;SDS011;60354;47.798;12.472;2024-01-07T14:18:40;8.88;;;4.97;;
72379;SDS011;60354;47.798;12.472;2024-01-07T14:21:05;7.13;;;4.10;;
72379;SDS011;60354;47.798;12.472;2024-01-07T14:23:31;7.65;;;4.85;;
72379;SDS011;60354;47.798;12.472;2024-01-07T14:25:59;5.85;;;3.70;;
72379;SDS011;60354;47.798;12.472;2024-01-07T14:28:24;7.50;;;5.25;;
72379;SDS011;60354;47.798;12.472;2024-01-07T14:30:50;4.65;;;3.33;;
72379;SDS011;60354;47.798;12.472;2024-01-07T14:33:15;5.72;;;3.33;;
72379;SDS011;60354;47.798;12.472;2024-01-07T14:35:41;8.60;;;5.05;;